»·PEaware :: BOE561 KJAC-KSLC

BOE561 :: KJAC-KSLC

FLIGHT INFORMATION

Flight Status: Arrived
Operator:
Boeing Commercial Airplane Group
More flights by this operator :: More flights under this callsign
Pilot: Ben F. (2808)
Aircraft: BOEING 737-200
(B732)
More flights by this aircraft type
Origin: KJAC Jackson Hole
United States
Destination: KSLC Salt Lake City Intl
United States
More flights between these airports :: More routes between these airports
Route: ALPIN2 KICNE LHO LHO4
File this flight plan on PilotEdge
Remarks:
Altitude:
(Current/Filed)
24,000ft
Speed:
(Current/Filed)
405kts
Departed: 17-Mar-18 08:37 AM
Arrived: 17-Mar-18 09:21 AM
Distance/Time
Traveled:
178nm/0:44
Distance/Time
To Go:
Arrived

Flight Plot

Page will automatically refresh every two minutes.

Flight plan parsing failed; only flown route is shown


Map Options




Map Legend


Flown Route
Filed Route
Departure Airport
Arrival Airport
Navaid (VOR, NDB)
Fix

Horizontal Profiles

Position Reports

Time Latitude Longitude Heading Altitude Ground
Speed
17-Mar-18 08:13 43.605035 -110.736309 109 6460ft 0kts
17-Mar-18 08:14 43.605035 -110.736309 109 6460ft 0kts
17-Mar-18 08:15 43.605035 -110.736309 109 6460ft 0kts
17-Mar-18 08:16 43.605035 -110.736309 109 6460ft 0kts
17-Mar-18 08:17 43.605035 -110.736309 109 6460ft 0kts
17-Mar-18 08:18 43.605035 -110.736309 109 6460ft 0kts
17-Mar-18 08:19 43.605035 -110.736309 109 6460ft 0kts
17-Mar-18 08:20 43.605035 -110.736309 109 6460ft 0kts
17-Mar-18 08:21 43.605035 -110.736309 109 6460ft 0kts
17-Mar-18 08:22 43.605035 -110.736309 109 6460ft 0kts
17-Mar-18 08:23 43.605035 -110.736309 109 6460ft 0kts
17-Mar-18 08:24 43.605035 -110.736309 109 6460ft 0kts
17-Mar-18 08:25 43.605035 -110.736309 109 6460ft 0kts
17-Mar-18 08:26 43.605035 -110.736309 109 6460ft 0kts
17-Mar-18 08:27 43.605035 -110.736309 109 6460ft 0kts
17-Mar-18 08:28 43.605155 -110.736771 109 6460ft 2kts
17-Mar-18 08:29 43.605014 -110.737300 19 6460ft 0kts
17-Mar-18 08:30 43.605015 -110.737299 19 6460ft 0kts
17-Mar-18 08:31 43.605735 -110.736928 18 6460ft 12kts
17-Mar-18 08:32 43.610280 -110.734705 18 6460ft 20kts
17-Mar-18 08:33 43.614860 -110.732618 347 6460ft 2kts
17-Mar-18 08:34 43.614885 -110.732628 343 6460ft 0kts
17-Mar-18 08:35 43.614716 -110.734171 197 6460ft 2kts
17-Mar-18 08:36 43.597234 -110.742744 199 6504ft 171kts
17-Mar-18 08:37 43.550236 -110.772706 203 8536ft 214kts
17-Mar-18 08:38 43.491436 -110.812812 204 10547ft 270kts
17-Mar-18 08:39 43.416848 -110.861940 203 12252ft 325kts
17-Mar-18 08:40 43.335043 -110.914741 203 14964ft 331kts
17-Mar-18 08:41 43.253386 -110.966891 203 17300ft 335kts
17-Mar-18 08:42 43.171366 -111.020336 206 19290ft 340kts
17-Mar-18 08:43 43.089651 -111.080966 206 21011ft 345kts
17-Mar-18 08:44 43.005741 -111.140845 207 22531ft 349kts
17-Mar-18 08:45 42.922110 -111.201743 208 23785ft 354kts
17-Mar-18 08:46 42.837574 -111.263439 209 23799ft 385kts
17-Mar-18 08:47 42.745504 -111.330414 209 23791ft 402kts
17-Mar-18 08:48 42.649323 -111.400094 209 23788ft 403kts
17-Mar-18 08:49 42.553885 -111.469003 209 23786ft 401kts
17-Mar-18 08:50 42.458445 -111.537660 209 23813ft 398kts
17-Mar-18 08:51 42.362011 -111.606808 209 23857ft 397kts
17-Mar-18 08:52 42.268071 -111.673935 209 23863ft 401kts
17-Mar-18 08:53 42.171959 -111.742375 208 23861ft 404kts
17-Mar-18 08:54 42.073965 -111.811893 208 23859ft 406kts
17-Mar-18 08:55 41.976041 -111.881143 208 23358ft 406kts
17-Mar-18 08:56 41.889801 -111.941899 208 21791ft 361kts
17-Mar-18 08:57 41.822317 -111.989329 208 20556ft 332kts
17-Mar-18 08:58 41.736445 -112.017631 190 18342ft 328kts
17-Mar-18 08:59 41.648930 -112.032400 189 16992ft 321kts
17-Mar-18 09:00 41.561123 -112.046392 189 16997ft 322kts
17-Mar-18 09:01 41.473091 -112.059947 189 16535ft 338kts
17-Mar-18 09:02 41.383243 -112.073678 188 14362ft 327kts
17-Mar-18 09:03 41.296806 -112.086857 188 12229ft 317kts
17-Mar-18 09:04 41.217098 -112.100606 194 11326ft 275kts
17-Mar-18 09:05 41.150098 -112.122031 194 10985ft 227kts
17-Mar-18 09:06 41.093949 -112.140224 194 11039ft 227kts
17-Mar-18 09:07 41.031930 -112.131593 171 10997ft 222kts
17-Mar-18 09:08 40.974112 -112.114187 171 11020ft 226kts
17-Mar-18 09:09 40.910568 -112.095294 171 11012ft 248kts
17-Mar-18 09:10 40.852425 -112.078176 171 10662ft 213kts
17-Mar-18 09:11 40.796058 -112.068449 176 9524ft 206kts
17-Mar-18 09:12 40.738470 -112.065057 176 9006ft 213kts
17-Mar-18 09:13 40.679687 -112.062066 176 8999ft 213kts
17-Mar-18 09:14 40.621588 -112.059110 176 8999ft 209kts
17-Mar-18 09:15 40.569909 -112.030572 111 8195ft 234kts
17-Mar-18 09:16 40.587581 -111.953614 66 7657ft 235kts
17-Mar-18 09:17 40.647285 -111.944895 348 6488ft 249kts
17-Mar-18 09:18 40.710779 -111.955684 358 5521ft 231kts
17-Mar-18 09:19 40.761626 -111.962460 6 4510ft 143kts
17-Mar-18 09:20 40.790876 -111.962022 358 4236ft 18kts
17-Mar-18 09:21 40.791456 -111.960435 96 4236ft 0kts
17-Mar-18 09:22 40.791447 -111.960409 126 4236ft 0kts
17-Mar-18 09:23 40.791433 -111.960400 158 4236ft 0kts
17-Mar-18 09:24 40.791432 -111.960400 159 4236ft 0kts
17-Mar-18 09:25 40.788619 -111.960004 179 4236ft 40kts
17-Mar-18 09:26 40.781702 -111.959244 181 4236ft 18kts
17-Mar-18 09:27 40.779132 -111.958644 174 4236ft 0kts

Navigation Log

Ident Type
Flight plan parsing failed, navigation log unavailable